createdAt,value
2019-01-23T00:01:58.373Z,0.30
2019-01-23T00:04:27.839Z,0.30
2019-01-23T00:06:57.372Z,0.30
2019-01-23T00:09:26.827Z,0.30
2019-01-23T00:11:56.215Z,0.30
2019-01-23T00:14:25.841Z,0.30
2019-01-23T00:16:55.148Z,0.30
2019-01-23T00:19:27.407Z,0.30
2019-01-23T00:21:56.887Z,0.30
2019-01-23T00:24:26.372Z,0.30
2019-01-23T00:26:59.198Z,0.30
2019-01-23T00:29:28.580Z,0.20
2019-01-23T00:31:58.554Z,0.20
2019-01-23T00:34:28.789Z,0.20
2019-01-23T00:36:58.244Z,0.20
2019-01-23T00:39:28.225Z,0.20
2019-01-23T00:41:58.385Z,0.20
2019-01-23T00:44:28.817Z,0.20
2019-01-23T00:46:58.158Z,0.20
2019-01-23T00:49:27.785Z,0.20
2019-01-23T00:51:57.446Z,0.20
2019-01-23T00:54:27.290Z,0.20
2019-01-23T00:56:57.632Z,0.20
2019-01-23T00:59:27.468Z,0.20
2019-01-23T01:01:57.339Z,0.20
2019-01-23T01:04:27.534Z,0.20
2019-01-23T01:06:57.690Z,0.20
2019-01-23T01:09:27.664Z,0.20
2019-01-23T01:11:57.099Z,0.10
2019-01-23T01:14:26.543Z,0.20
2019-01-23T01:16:56.055Z,0.20
2019-01-23T01:19:28.832Z,0.20
2019-01-23T01:21:58.365Z,0.20
2019-01-23T01:24:28.107Z,0.20
2019-01-23T01:26:58.193Z,0.20
2019-01-23T01:29:27.935Z,0.10
2019-01-23T01:31:57.675Z,0.20
2019-01-23T01:34:27.696Z,0.10
2019-01-23T01:36:57.145Z,0.10
2019-01-23T01:39:26.808Z,1.30
2019-01-23T01:41:56.531Z,0.10
2019-01-23T01:44:26.339Z,0.10
2019-01-23T01:46:59.389Z,0.10
2019-01-23T01:49:31.113Z,0.10
2019-01-23T01:52:01.366Z,0.10
2019-01-23T01:54:30.847Z,0.10
2019-01-23T01:57:00.397Z,0.10
2019-01-23T01:59:32.954Z,0.10
2019-01-23T02:02:04.430Z,0.10
2019-01-23T02:04:34.428Z,0.10
2019-01-23T02:07:06.609Z,0.10
2019-01-23T02:09:36.299Z,0.10
2019-01-23T02:12:06.176Z,0.10
2019-01-23T02:14:35.589Z,0.10
2019-01-23T02:17:05.315Z,0.10
2019-01-23T02:19:35.405Z,0.10
2019-01-23T02:22:05.746Z,0.10
2019-01-23T02:24:35.505Z,0.10
2019-01-23T02:27:05.089Z,0.10
2019-01-23T02:29:34.782Z,0.10
2019-01-23T02:32:04.672Z,0.10
2019-01-23T02:34:34.568Z,0.10
2019-01-23T02:37:04.037Z,0.10
2019-01-23T02:39:33.821Z,0.00
2019-01-23T02:42:06.790Z,0.10
2019-01-23T02:44:36.845Z,0.10
2019-01-23T02:47:06.184Z,0.10
2019-01-23T02:49:35.646Z,0.10
2019-01-23T02:52:08.256Z,0.10
2019-01-23T02:54:37.699Z,0.00
2019-01-23T02:57:07.578Z,0.10
2019-01-23T02:59:37.229Z,0.10
2019-01-23T03:02:09.039Z,0.00
2019-01-23T03:04:38.955Z,0.00
2019-01-23T03:07:08.361Z,0.00
2019-01-23T03:09:37.803Z,0.10
2019-01-23T03:12:10.171Z,0.10
2019-01-23T03:14:39.924Z,0.10
2019-01-23T03:17:10.671Z,0.10
2019-01-23T03:19:40.447Z,0.10
2019-01-23T03:22:10.039Z,0.10
2019-01-23T03:24:39.667Z,0.10
2019-01-23T03:27:09.233Z,0.10
2019-01-23T03:29:38.683Z,0.10
2019-01-23T03:32:12.553Z,0.10
2019-01-23T03:34:42.219Z,0.00
2019-01-23T03:37:12.612Z,0.10
2019-01-23T03:39:43.624Z,0.10
2019-01-23T03:42:13.007Z,0.10
2019-01-23T03:44:42.429Z,0.10
2019-01-23T03:47:12.994Z,0.10
2019-01-23T03:49:42.404Z,0.10
2019-01-23T03:52:12.410Z,0.10
2019-01-23T03:54:41.764Z,0.10
2019-01-23T03:57:11.214Z,0.10
2019-01-23T03:59:41.986Z,0.10
2019-01-23T04:02:11.622Z,0.10
2019-01-23T04:04:41.060Z,0.10
2019-01-23T04:07:10.465Z,0.10
2019-01-23T04:09:41.916Z,0.10
2019-01-23T04:12:11.745Z,0.10
2019-01-23T04:14:41.444Z,0.10
2019-01-23T04:17:10.850Z,0.10
2019-01-23T04:19:40.333Z,0.10
2019-01-23T04:22:09.749Z,0.10
2019-01-23T04:24:39.421Z,0.10
2019-01-23T04:27:09.111Z,0.10
2019-01-23T04:29:39.839Z,0.10
2019-01-23T04:39:31.005Z,0.10
2019-01-23T04:42:00.463Z,0.10
2019-01-23T04:44:30.131Z,0.10
2019-01-23T04:54:21.583Z,0.10
2019-01-23T04:56:50.987Z,0.10
2019-01-23T04:59:23.821Z,0.10
2019-01-23T05:01:53.642Z,0.10
2019-01-23T05:04:23.608Z,0.10
2019-01-23T05:07:00.659Z,0.10
2019-01-23T05:09:32.959Z,0.10
2019-01-23T05:12:03.059Z,0.10
2019-01-23T05:14:32.430Z,0.10
2019-01-23T05:17:02.180Z,0.10
2019-01-23T05:19:31.537Z,0.10
2019-01-23T05:22:04.042Z,0.10
2019-01-23T05:24:36.215Z,0.10
2019-01-23T05:27:06.191Z,0.10
2019-01-23T05:29:36.372Z,0.10
2019-01-23T05:32:14.139Z,0.10
2019-01-23T05:34:43.962Z,0.10
2019-01-23T05:37:14.037Z,0.10
2019-01-23T05:39:44.873Z,0.10
2019-01-23T05:42:14.553Z,0.10
2019-01-23T05:44:43.934Z,0.10
2019-01-23T05:47:13.601Z,0.10
2019-01-23T05:49:43.960Z,0.10
2019-01-23T05:52:13.342Z,0.10
2019-01-23T05:54:42.928Z,0.10
2019-01-23T05:57:14.565Z,0.10
2019-01-23T05:59:44.230Z,0.10
2019-01-23T06:02:13.910Z,0.10
2019-01-23T06:04:45.385Z,0.10
2019-01-23T06:07:14.689Z,0.10
2019-01-23T06:09:44.468Z,0.10
2019-01-23T06:12:14.173Z,0.10
2019-01-23T06:14:44.538Z,0.10
2019-01-23T06:17:14.362Z,0.00
2019-01-23T06:19:44.331Z,0.00
2019-01-23T06:22:13.818Z,0.00
2019-01-23T06:24:43.681Z,0.00
2019-01-23T06:27:13.117Z,0.00
2019-01-23T06:29:42.767Z,0.00
2019-01-23T06:32:15.552Z,-0.10
2019-01-23T06:34:45.459Z,-0.10
2019-01-23T06:37:22.336Z,-0.10
2019-01-23T06:39:55.678Z,-0.10
2019-01-23T06:42:25.097Z,-0.10
2019-01-23T06:44:57.861Z,-0.20
2019-01-23T06:47:29.722Z,-0.20
2019-01-23T06:50:02.032Z,-0.20
2019-01-23T06:52:31.408Z,-0.20
2019-01-23T06:55:01.398Z,-0.30
2019-01-23T06:58:22.852Z,-0.30
2019-01-23T07:00:48.106Z,-0.30
2019-01-23T07:03:19.406Z,-0.30
2019-01-23T07:05:49.771Z,-0.40
2019-01-23T07:08:19.403Z,-0.40
2019-01-23T07:10:48.867Z,-0.40
2019-01-23T07:13:18.453Z,-0.40
2019-01-23T07:15:48.220Z,-0.50
2019-01-23T07:18:18.013Z,-0.50
2019-01-23T07:20:47.515Z,-0.50
2019-01-23T07:23:17.349Z,-0.50
2019-01-23T07:25:47.418Z,-0.50
2019-01-23T07:28:17.848Z,-0.50
2019-01-23T07:30:47.707Z,-0.60
2019-01-23T07:33:17.573Z,-0.60
2019-01-23T07:35:49.984Z,-0.70
2019-01-23T07:38:19.555Z,-0.70
2019-01-23T07:40:49.006Z,-0.70
2019-01-23T07:43:18.632Z,-0.80
2019-01-23T07:45:48.689Z,-0.80
2019-01-23T07:48:17.980Z,-0.80
2019-01-23T07:50:47.666Z,-0.80
2019-01-23T07:53:17.964Z,-0.80
2019-01-23T07:55:47.829Z,-0.80
2019-01-23T07:58:18.310Z,-0.80
2019-01-23T08:00:47.805Z,-0.90
2019-01-23T08:03:17.409Z,-0.80
2019-01-23T08:05:48.731Z,-0.80
2019-01-23T08:08:18.671Z,-0.80
2019-01-23T08:10:49.238Z,-0.90
2019-01-23T08:13:19.053Z,-0.90
2019-01-23T08:15:48.925Z,-0.90
2019-01-23T08:18:18.330Z,-0.90
2019-01-23T08:20:48.368Z,-0.90
2019-01-23T08:23:17.719Z,-0.90
2019-01-23T08:25:47.530Z,-0.90
2019-01-23T08:28:16.935Z,-0.90
2019-01-23T08:30:47.049Z,-0.90
2019-01-23T08:33:18.072Z,-0.90
2019-01-23T08:35:47.938Z,-0.90
2019-01-23T08:38:17.756Z,-0.90
2019-01-23T08:40:47.789Z,-0.90
2019-01-23T08:43:17.589Z,-0.90
2019-01-23T08:45:47.706Z,-0.90
2019-01-23T08:48:17.178Z,-0.90
2019-01-23T08:50:47.090Z,-0.80
2019-01-23T08:53:16.754Z,-0.80
2019-01-23T08:55:53.351Z,-0.90
2019-01-23T08:58:17.966Z,-0.80
2019-01-23T09:00:50.306Z,-0.80
2019-01-23T09:03:19.692Z,-0.80
2019-01-23T09:05:49.443Z,-0.80
2019-01-23T09:08:21.583Z,-0.80
2019-01-23T09:10:51.074Z,-0.80
2019-01-23T09:13:24.171Z,-0.80
2019-01-23T09:15:53.512Z,-0.70
2019-01-23T09:18:22.980Z,-0.70
2019-01-23T09:20:53.138Z,-0.70
2019-01-23T09:23:22.884Z,-0.70
2019-01-23T09:25:52.308Z,-0.70
2019-01-23T09:28:22.028Z,-0.70
2019-01-23T09:31:23.266Z,-0.70
2019-01-23T09:34:20.478Z,-0.60
2019-01-23T09:37:26.162Z,-0.60
2019-01-23T09:40:30.306Z,-0.50
2019-01-23T09:43:24.887Z,-0.50
2019-01-23T09:46:48.399Z,-0.50
2019-01-23T09:49:52.414Z,-0.40
2019-01-23T09:52:52.436Z,-0.40
2019-01-23T09:55:22.076Z,-0.40
2019-01-23T09:57:55.201Z,-0.40
2019-01-23T10:00:27.781Z,-0.30
2019-01-23T10:02:59.787Z,-0.30
2019-01-23T10:05:29.807Z,-0.30
2019-01-23T10:07:59.616Z,-0.20
2019-01-23T10:10:29.364Z,-0.20
2019-01-23T10:12:58.810Z,-0.20
2019-01-23T10:15:32.615Z,-0.10
2019-01-23T10:18:02.321Z,0.00
2019-01-23T10:20:31.772Z,0.00
2019-01-23T10:23:01.191Z,0.00
2019-01-23T10:25:30.907Z,0.00
2019-01-23T10:28:03.341Z,0.00
2019-01-23T10:30:36.807Z,0.00
2019-01-23T10:33:06.117Z,0.10
2019-01-23T10:35:36.198Z,0.10
2019-01-23T10:38:05.867Z,0.10
2019-01-23T10:40:35.305Z,0.20
2019-01-23T10:43:05.541Z,0.20
2019-01-23T10:45:38.322Z,0.30
2019-01-23T10:48:10.265Z,0.30
2019-01-23T10:50:43.334Z,0.30
2019-01-23T10:53:12.879Z,0.40
2019-01-23T10:55:42.358Z,0.40
2019-01-23T10:58:15.499Z,0.40
2019-01-23T11:00:45.439Z,0.40
2019-01-23T11:03:17.430Z,0.40
2019-01-23T11:05:48.191Z,0.50
2019-01-23T11:08:17.752Z,0.50
2019-01-23T11:10:47.979Z,0.60
2019-01-23T11:13:18.120Z,0.60
2019-01-23T11:15:47.815Z,0.70
2019-01-23T11:18:17.647Z,0.80
2019-01-23T11:20:47.652Z,0.70
2019-01-23T11:23:17.269Z,0.80
2019-01-23T11:25:48.445Z,0.90
2019-01-23T11:28:18.627Z,0.90
2019-01-23T11:30:51.393Z,0.90
2019-01-23T11:33:30.511Z,1.00
2019-01-23T11:36:04.541Z,1.00
2019-01-23T11:38:34.727Z,1.00
2019-01-23T11:41:04.586Z,1.00
2019-01-23T11:43:37.458Z,1.10
2019-01-23T11:46:07.068Z,1.10
2019-01-23T11:48:36.881Z,1.10
2019-01-23T11:51:06.470Z,1.10
2019-01-23T11:53:37.545Z,1.10
2019-01-23T11:56:08.852Z,1.20
2019-01-23T11:58:38.546Z,1.20
2019-01-23T12:01:08.412Z,1.20
2019-01-23T12:03:37.934Z,1.20
2019-01-23T12:06:07.459Z,1.20
2019-01-23T12:08:37.230Z,1.30
2019-01-23T12:11:06.879Z,1.20
2019-01-23T12:13:36.663Z,1.20
2019-01-23T12:16:06.231Z,1.30
2019-01-23T12:18:36.012Z,1.30
2019-01-23T12:21:05.550Z,1.20
2019-01-23T12:23:36.023Z,1.20
2019-01-23T12:26:05.749Z,1.10
2019-01-23T12:28:38.263Z,1.10
2019-01-23T12:31:09.657Z,1.10
2019-01-23T12:33:42.233Z,1.20
2019-01-23T12:36:28.701Z,1.10
2019-01-23T12:39:02.232Z,1.10
2019-01-23T12:41:31.937Z,1.10
2019-01-23T12:44:01.828Z,1.10
2019-01-23T12:46:31.337Z,1.10
2019-01-23T12:49:02.214Z,1.00
2019-01-23T12:51:31.776Z,1.00
2019-01-23T12:54:01.490Z,1.00
2019-01-23T12:56:34.487Z,1.00
2019-01-23T12:59:04.483Z,1.00
2019-01-23T13:01:34.299Z,1.00
2019-01-23T13:04:04.498Z,0.90
2019-01-23T13:06:34.741Z,0.90
2019-01-23T13:09:06.908Z,0.90
2019-01-23T13:11:39.497Z,0.90
2019-01-23T13:14:12.165Z,0.80
2019-01-23T13:16:42.074Z,0.80
2019-01-23T13:19:19.196Z,0.80
2019-01-23T13:21:52.480Z,0.80
2019-01-23T13:24:23.149Z,0.80
2019-01-23T13:26:53.069Z,0.70
2019-01-23T13:29:24.406Z,0.70
2019-01-23T13:31:54.112Z,0.70
2019-01-23T13:34:26.181Z,0.70
2019-01-23T13:36:55.736Z,0.70
2019-01-23T13:39:27.790Z,0.70
2019-01-23T13:41:57.479Z,0.70
2019-01-23T13:44:27.009Z,0.70
2019-01-23T13:46:59.545Z,0.70
2019-01-23T13:49:29.572Z,0.70
2019-01-23T13:51:59.268Z,0.60
2019-01-23T13:54:28.742Z,0.60
2019-01-23T13:56:58.717Z,0.60
2019-01-23T13:59:30.347Z,0.50
2019-01-23T14:01:59.925Z,0.60
2019-01-23T14:04:29.790Z,0.60
2019-01-23T14:07:00.879Z,0.60
2019-01-23T14:09:33.455Z,0.60
2019-01-23T14:12:03.313Z,0.60
2019-01-23T14:14:32.671Z,0.50
2019-01-23T14:17:02.568Z,0.50
2019-01-23T14:19:33.780Z,0.50
2019-01-23T14:22:03.441Z,0.50
2019-01-23T14:24:32.871Z,0.40
2019-01-23T14:27:02.332Z,0.40
2019-01-23T14:29:33.235Z,0.50
2019-01-23T14:32:03.559Z,0.50
2019-01-23T14:34:35.625Z,0.50
2019-01-23T14:37:04.924Z,0.50
2019-01-23T14:39:34.695Z,0.40
2019-01-23T14:42:04.702Z,0.50
2019-01-23T14:44:34.162Z,0.40
2019-01-23T14:47:03.870Z,0.40
2019-01-23T14:49:33.436Z,0.40
2019-01-23T14:52:04.158Z,0.40
2019-01-23T14:54:33.935Z,0.40
2019-01-23T14:57:26.565Z,0.40
2019-01-23T14:59:59.330Z,0.40
2019-01-23T15:02:29.309Z,0.40
2019-01-23T15:04:59.656Z,0.40
2019-01-23T15:07:29.753Z,0.40
2019-01-23T15:09:59.299Z,0.40
2019-01-23T15:12:29.521Z,0.40
2019-01-23T15:14:59.062Z,0.40
2019-01-23T15:17:30.720Z,0.40
2019-01-23T15:20:00.337Z,0.40
2019-01-23T15:22:30.175Z,0.30
2019-01-23T15:25:03.073Z,0.30
2019-01-23T15:27:35.030Z,0.30
2019-01-23T15:30:07.928Z,0.30
2019-01-23T15:32:37.625Z,0.30
2019-01-23T15:35:07.734Z,0.30
2019-01-23T15:37:37.491Z,0.30
2019-01-23T15:40:20.055Z,0.30
2019-01-23T15:42:50.034Z,0.30
2019-01-23T15:45:19.905Z,0.30
2019-01-23T15:47:53.413Z,0.30
2019-01-23T15:50:24.072Z,0.20
2019-01-23T15:52:54.162Z,0.30
2019-01-23T15:55:29.795Z,0.30
2019-01-23T15:57:59.973Z,0.30
2019-01-23T16:00:36.744Z,0.30
2019-01-23T16:03:09.485Z,0.30
2019-01-23T16:05:40.724Z,0.30
2019-01-23T16:08:14.199Z,0.30
2019-01-23T16:10:43.791Z,0.20
2019-01-23T16:13:16.312Z,0.20
2019-01-23T16:15:46.026Z,0.20
2019-01-23T16:18:17.270Z,0.20
2019-01-23T16:20:47.034Z,0.20
2019-01-23T16:23:20.243Z,0.20
2019-01-23T16:25:49.779Z,0.20
2019-01-23T16:28:19.355Z,0.20
2019-01-23T16:30:49.369Z,0.10
2019-01-23T16:33:22.772Z,0.20
2019-01-23T16:35:52.294Z,0.20
2019-01-23T16:38:24.807Z,0.20
2019-01-23T16:40:54.283Z,0.20
2019-01-23T16:43:23.871Z,0.20
2019-01-23T16:45:53.437Z,0.10
2019-01-23T16:48:27.010Z,0.10
2019-01-23T16:50:56.887Z,0.10
2019-01-23T16:53:28.980Z,0.10
2019-01-23T16:55:58.638Z,0.10
2019-01-23T16:58:28.182Z,0.20
2019-01-23T17:01:00.375Z,0.10
2019-01-23T17:03:30.661Z,0.10
2019-01-23T17:06:04.599Z,0.10
2019-01-23T17:08:34.179Z,0.10
2019-01-23T17:11:03.993Z,0.10
2019-01-23T17:13:34.361Z,0.10
2019-01-23T17:16:03.948Z,0.10
2019-01-23T17:18:36.498Z,0.10
2019-01-23T17:21:06.325Z,0.10
2019-01-23T17:23:37.196Z,0.10
2019-01-23T17:26:06.685Z,0.10
2019-01-23T17:28:36.647Z,0.10
2019-01-23T17:31:06.518Z,0.10
2019-01-23T17:33:36.670Z,0.10
2019-01-23T17:36:06.150Z,0.10
2019-01-23T17:38:36.436Z,0.10
2019-01-23T17:41:06.211Z,0.10
2019-01-23T17:43:41.430Z,1.40
2019-01-23T17:46:11.713Z,0.10
2019-01-23T17:48:41.348Z,0.10
2019-01-23T17:51:11.820Z,0.10
2019-01-23T17:53:41.982Z,0.10
2019-01-23T17:56:11.792Z,0.10
2019-01-23T17:58:41.808Z,0.10
2019-01-23T18:01:11.981Z,0.10
2019-01-23T18:03:41.854Z,0.10
2019-01-23T18:06:11.403Z,0.10
2019-01-23T18:08:41.261Z,0.10
2019-01-23T18:11:10.706Z,0.10
2019-01-23T18:13:40.696Z,0.10
2019-01-23T18:16:12.683Z,0.10
2019-01-23T18:18:42.078Z,0.10
2019-01-23T18:21:12.161Z,0.10
2019-01-23T18:23:44.756Z,0.10
2019-01-23T18:26:17.912Z,0.20
2019-01-23T18:28:47.381Z,0.20
2019-01-23T18:31:58.432Z,0.20
2019-01-23T18:35:08.056Z,0.20
2019-01-23T18:38:00.950Z,0.20
2019-01-23T18:41:32.617Z,0.20
2019-01-23T18:44:54.427Z,0.20
2019-01-23T18:48:13.778Z,0.20
2019-01-23T18:51:22.153Z,0.20
2019-01-23T18:53:51.624Z,0.20
2019-01-23T18:56:21.170Z,0.20
2019-01-23T18:58:51.141Z,0.20
2019-01-23T19:01:23.847Z,0.20
2019-01-23T19:04:00.498Z,0.20
2019-01-23T19:06:30.274Z,0.20
2019-01-23T19:08:59.754Z,0.20
2019-01-23T19:11:29.625Z,0.20
2019-01-23T19:13:59.031Z,0.20
2019-01-23T19:16:28.488Z,0.20
2019-01-23T19:18:57.855Z,0.20
2019-01-23T19:21:28.799Z,0.20
2019-01-23T19:23:58.208Z,0.20
2019-01-23T19:26:27.582Z,0.20
2019-01-23T19:28:57.455Z,0.20
2019-01-23T19:31:26.900Z,0.20
2019-01-23T19:33:56.866Z,0.20
2019-01-23T19:36:26.381Z,0.20
2019-01-23T19:38:56.650Z,0.20
2019-01-23T19:41:28.959Z,0.20
2019-01-23T19:43:58.648Z,0.20
2019-01-23T19:46:28.049Z,0.20
2019-01-23T19:48:59.120Z,0.20
2019-01-23T19:51:29.089Z,0.20
2019-01-23T19:53:58.587Z,0.20
2019-01-23T19:56:28.322Z,0.20
2019-01-23T19:58:57.913Z,0.20
2019-01-23T20:01:27.426Z,0.20
2019-01-23T20:03:57.127Z,0.20
2019-01-23T20:06:26.941Z,0.20
2019-01-23T20:08:56.321Z,0.20
2019-01-23T20:11:26.064Z,0.20
2019-01-23T20:13:58.615Z,0.20
2019-01-23T20:16:28.447Z,0.20
2019-01-23T20:18:57.785Z,0.20
2019-01-23T20:21:27.592Z,0.20
2019-01-23T20:23:57.469Z,0.20
2019-01-23T20:26:26.910Z,0.20
2019-01-23T20:28:57.135Z,0.10
2019-01-23T20:31:26.654Z,0.20
2019-01-23T20:33:56.101Z,0.20
2019-01-23T20:36:25.459Z,0.20
2019-01-23T20:38:55.221Z,0.20
2019-01-23T20:41:24.633Z,0.10
2019-01-23T20:43:56.841Z,0.20
2019-01-23T20:46:26.238Z,0.20
2019-01-23T20:48:59.426Z,0.20
2019-01-23T20:51:28.805Z,0.10
2019-01-23T20:53:58.510Z,0.10
2019-01-23T20:56:33.020Z,0.10
2019-01-23T20:59:02.539Z,0.10
2019-01-23T21:01:31.933Z,0.20
2019-01-23T21:04:03.463Z,0.20
2019-01-23T21:06:32.885Z,0.20
2019-01-23T21:09:02.282Z,0.20
2019-01-23T21:11:32.246Z,0.20
2019-01-23T21:14:01.990Z,0.10
2019-01-23T21:16:31.512Z,0.20
2019-01-23T21:19:01.310Z,0.10
2019-01-23T21:21:30.892Z,0.20
2019-01-23T21:24:00.313Z,0.10
2019-01-23T21:26:29.739Z,0.10
2019-01-23T21:28:59.536Z,0.10
2019-01-23T21:31:28.901Z,0.10
2019-01-23T21:33:59.982Z,0.10
2019-01-23T21:36:29.794Z,0.10
2019-01-23T21:39:05.396Z,0.10
2019-01-23T21:41:35.194Z,0.10
2019-01-23T21:44:04.897Z,0.10
2019-01-23T21:46:35.857Z,0.00
2019-01-23T21:49:05.573Z,0.00
2019-01-23T21:51:35.385Z,0.00
2019-01-23T21:54:04.941Z,-0.10
2019-01-23T21:56:34.576Z,-0.10
2019-01-23T21:59:04.852Z,-0.10
2019-01-23T22:01:34.671Z,-0.10
2019-01-23T22:04:04.438Z,-0.10
2019-01-23T22:06:33.749Z,-0.10
2019-01-23T22:09:04.340Z,-0.10
2019-01-23T22:11:33.748Z,0.00
2019-01-23T22:14:04.902Z,0.00
2019-01-23T22:16:34.323Z,0.00
2019-01-23T22:19:03.693Z,0.00
2019-01-23T22:21:33.094Z,-0.10
2019-01-23T22:24:08.129Z,-0.10
2019-01-23T22:26:37.506Z,-0.10
2019-01-23T22:29:06.905Z,-0.10
2019-01-23T22:31:36.651Z,-0.10
2019-01-23T22:34:06.243Z,-0.10
2019-01-23T22:36:35.850Z,-0.10
2019-01-23T22:39:09.115Z,-0.10
2019-01-23T22:41:38.520Z,-0.10
2019-01-23T22:44:08.553Z,-0.10
2019-01-23T22:46:51.325Z,-0.10
2019-01-23T22:49:20.778Z,-0.10
2019-01-23T22:51:50.453Z,-0.10
2019-01-23T22:54:21.754Z,-0.10
2019-01-23T22:56:51.408Z,-0.10
2019-01-23T22:59:20.843Z,-0.10
2019-01-23T23:01:50.165Z,-0.10
2019-01-23T23:04:23.003Z,-0.10
2019-01-23T23:06:52.370Z,-0.10
2019-01-23T23:09:21.764Z,-0.10
2019-01-23T23:11:51.165Z,-0.10
2019-01-23T23:14:23.882Z,-0.10
2019-01-23T23:16:55.296Z,-0.10
2019-01-23T23:19:24.930Z,0.00
2019-01-23T23:21:54.238Z,-0.10
2019-01-23T23:24:23.655Z,-0.10
2019-01-23T23:26:53.619Z,-0.10
2019-01-23T23:29:23.569Z,-0.10
2019-01-23T23:31:53.256Z,-0.10
2019-01-23T23:34:26.207Z,-0.10
2019-01-23T23:36:55.763Z,0.00
2019-01-23T23:39:25.804Z,-0.10
2019-01-23T23:41:55.490Z,0.00
2019-01-23T23:44:25.414Z,0.00
2019-01-23T23:46:55.643Z,-0.10
2019-01-23T23:49:25.223Z,0.00
2019-01-23T23:51:54.951Z,0.00
2019-01-23T23:54:24.256Z,0.00
2019-01-23T23:56:53.621Z,0.00
2019-01-23T23:59:23.373Z,0.00
